createdAt,value
2023-03-13T00:03:10.749Z,24.28
2023-03-13T00:08:17.132Z,18.93
2023-03-13T00:13:23.861Z,20.35
2023-03-13T00:18:30.417Z,21.07
2023-03-13T00:23:36.880Z,30.71
2023-03-13T00:28:45.028Z,21.07
2023-03-13T00:38:56.944Z,20.35
2023-03-13T00:44:03.679Z,22.14
2023-03-13T00:49:09.953Z,27.85
2023-03-13T00:54:16.463Z,22.14
2023-03-13T00:59:22.922Z,23.21
2023-03-13T01:04:29.472Z,22.85
2023-03-13T01:09:35.719Z,20.71
2023-03-13T01:14:42.152Z,20.35
2023-03-13T01:19:48.773Z,30.71
2023-03-13T01:24:55.315Z,30.71
2023-03-13T01:30:01.942Z,35.00
2023-03-13T01:35:08.622Z,21.43
2023-03-13T01:40:15.096Z,21.78
2023-03-13T01:45:21.737Z,25.35
2023-03-13T01:50:28.439Z,25.00
2023-03-13T01:55:35.194Z,20.35
2023-03-13T02:00:41.709Z,22.14
2023-03-13T02:05:48.634Z,25.35
2023-03-13T02:10:54.828Z,21.07
2023-03-13T02:16:02.530Z,31.43
2023-03-13T02:21:08.756Z,25.71
2023-03-13T02:26:15.455Z,30.71
2023-03-13T02:31:21.873Z,27.14
2023-03-13T02:36:28.024Z,22.85
2023-03-13T02:41:34.390Z,27.14
2023-03-13T02:46:42.164Z,33.57
2023-03-13T02:51:48.539Z,30.35
2023-03-13T02:56:55.355Z,25.71
2023-03-13T03:02:01.568Z,30.35
2023-03-13T03:07:08.465Z,14.28
2023-03-13T03:12:14.912Z,23.21
2023-03-13T03:17:21.636Z,27.50
2023-03-13T03:22:27.864Z,27.85
2023-03-13T03:27:34.420Z,29.28
2023-03-13T03:32:41.145Z,24.28
2023-03-13T03:37:49.882Z,30.71
2023-03-13T03:42:56.362Z,21.07
2023-03-13T03:48:02.952Z,21.07
2023-03-13T03:53:09.554Z,30.00
2023-03-13T03:58:16.151Z,34.64
2023-03-13T04:03:22.771Z,23.93
2023-03-13T04:08:30.227Z,21.07
2023-03-13T04:13:36.798Z,20.71
2023-03-13T04:18:43.437Z,31.43
2023-03-13T04:23:50.005Z,37.14
2023-03-13T04:28:56.605Z,31.07
2023-03-13T04:34:03.059Z,23.57
2023-03-13T04:39:09.712Z,25.71
2023-03-13T04:44:17.313Z,41.78
2023-03-13T04:49:23.896Z,20.71
2023-03-13T04:54:30.160Z,27.50
2023-03-13T04:59:36.813Z,30.00
2023-03-13T05:04:43.044Z,40.00
2023-03-13T05:09:49.693Z,31.43
2023-03-13T05:15:04.028Z,31.43
2023-03-13T05:20:01.660Z,40.35
2023-03-13T05:25:10.911Z,22.85
2023-03-13T05:30:18.969Z,34.28
2023-03-13T05:35:24.428Z,25.00
2023-03-13T05:40:31.246Z,35.00
2023-03-13T05:45:37.575Z,32.85
2023-03-13T05:50:45.429Z,34.64
2023-03-13T05:55:53.249Z,41.78
2023-03-13T06:00:59.792Z,30.00
2023-03-13T06:06:07.514Z,21.43
2023-03-13T06:11:13.928Z,32.50
2023-03-13T06:16:20.581Z,21.43
2023-03-13T06:21:27.221Z,26.07
2023-03-13T06:26:33.727Z,36.07
2023-03-13T06:31:40.508Z,32.85
2023-03-13T06:36:46.811Z,38.57
2023-03-13T06:41:54.411Z,25.35
2023-03-13T06:47:00.978Z,21.43
2023-03-13T06:52:08.802Z,39.28
2023-03-13T06:57:15.427Z,31.43
2023-03-13T07:02:23.833Z,32.50
2023-03-13T07:07:32.161Z,25.00
2023-03-13T07:12:37.748Z,20.00
2023-03-13T07:17:44.256Z,20.35
2023-03-13T07:22:50.883Z,24.28
2023-03-13T07:27:57.390Z,22.14
2023-03-13T07:33:04.256Z,20.35
2023-03-13T07:38:10.517Z,26.78
2023-03-13T07:43:17.193Z,33.57
2023-03-13T07:48:23.786Z,24.64
2023-03-13T07:53:35.310Z,23.21
2023-03-13T07:58:31.698Z,20.71
2023-03-13T08:03:38.092Z,21.78
2023-03-13T08:08:44.397Z,20.71
2023-03-13T08:13:50.238Z,26.05
2023-03-13T08:18:56.896Z,31.07
2023-03-13T08:24:03.311Z,20.71
2023-03-13T08:29:09.983Z,19.48
2023-03-13T08:34:16.567Z,18.57
2023-03-13T08:39:23.200Z,19.64
2023-03-13T08:44:29.805Z,31.78
2023-03-13T08:49:36.390Z,20.00
2023-03-13T08:54:42.887Z,33.92
2023-03-13T08:59:50.786Z,20.30
2023-03-13T09:04:57.046Z,21.07
2023-03-13T09:10:04.633Z,13.21
2023-03-13T09:15:11.201Z,15.36
2023-03-13T09:20:18.188Z,21.78
2023-03-13T09:25:24.499Z,21.07
2023-03-13T09:30:32.255Z,20.71
2023-03-13T09:35:38.797Z,15.00
2023-03-13T09:40:53.549Z,17.86
2023-03-13T09:45:52.549Z,10.71
2023-03-13T09:50:59.370Z,9.28
2023-03-13T09:56:05.696Z,5.71
2023-03-13T10:01:12.523Z,19.28
2023-03-13T10:06:19.775Z,13.21
2023-03-13T10:11:26.466Z,16.43
2023-03-13T10:16:32.976Z,17.86
2023-03-13T10:21:40.602Z,6.43
2023-03-13T10:26:47.063Z,9.28
2023-03-13T10:31:53.735Z,21.07
2023-03-13T10:37:00.304Z,10.71
2023-03-13T10:42:07.156Z,5.09
2023-03-13T10:47:13.420Z,1.82
2023-03-13T10:52:20.241Z,4.72
2023-03-13T10:57:26.600Z,14.17
2023-03-13T11:02:33.312Z,4.64
2023-03-13T11:07:39.776Z,21.07
2023-03-13T11:12:46.884Z,5.64
2023-03-13T11:17:53.372Z,0.00
2023-03-13T11:23:00.017Z,14.89
2023-03-13T11:28:06.574Z,9.58
2023-03-13T11:33:13.668Z,0.00
2023-03-13T11:38:19.942Z,6.72
2023-03-13T11:43:27.235Z,9.18
2023-03-13T11:48:33.702Z,2.50
2023-03-13T11:53:40.479Z,10.00
2023-03-13T11:58:46.931Z,6.78
2023-03-13T12:03:54.724Z,7.14
2023-03-13T12:09:01.017Z,0.36
2023-03-13T12:14:07.710Z,20.35
2023-03-13T12:19:14.064Z,4.64
2023-03-13T12:24:22.866Z,7.86
2023-03-13T12:29:29.270Z,0.00
2023-03-13T12:34:35.929Z,8.93
2023-03-13T12:39:42.186Z,7.14
2023-03-13T12:44:48.867Z,0.36
2023-03-13T12:49:55.388Z,1.07
2023-03-13T12:55:03.307Z,5.00
2023-03-13T13:00:09.707Z,0.00
2023-03-13T13:05:19.390Z,5.00
2023-03-13T13:10:26.662Z,5.36
2023-03-13T13:15:36.930Z,6.78
2023-03-13T13:20:44.859Z,4.64
2023-03-13T13:25:52.595Z,8.57
2023-03-13T13:30:58.956Z,1.07
2023-03-13T13:36:06.400Z,5.36
2023-03-13T13:41:12.538Z,5.71
2023-03-13T13:46:20.532Z,2.14
2023-03-13T13:51:26.829Z,5.71
2023-03-13T13:56:33.431Z,3.93
2023-03-13T14:01:40.246Z,5.00
2023-03-13T14:06:46.888Z,7.86
2023-03-13T14:11:53.033Z,0.00
2023-03-13T14:17:00.145Z,0.00
2023-03-13T14:22:25.581Z,3.93
2023-03-13T14:27:12.406Z,0.00
2023-03-13T14:32:21.069Z,0.36
2023-03-13T14:37:28.738Z,2.14
2023-03-13T14:42:35.026Z,0.00
2023-03-13T14:47:41.730Z,1.43
2023-03-13T14:52:48.284Z,0.36
2023-03-13T14:57:55.094Z,0.00
2023-03-13T15:03:01.651Z,3.93
2023-03-13T15:08:08.521Z,1.07
2023-03-13T15:13:14.999Z,0.00
2023-03-13T15:18:22.960Z,0.00
2023-03-13T15:23:29.328Z,0.00
2023-03-13T15:28:36.177Z,0.00
2023-03-13T15:33:42.488Z,0.00
2023-03-13T15:38:49.466Z,0.71
2023-03-13T15:43:55.970Z,0.71
2023-03-13T15:49:02.941Z,1.79
2023-03-13T15:54:09.634Z,0.00
2023-03-13T15:59:16.181Z,0.00
2023-03-13T16:04:22.652Z,1.07
2023-03-13T16:09:29.349Z,8.93
2023-03-13T16:14:35.959Z,2.50
2023-03-13T16:19:43.547Z,7.14
2023-03-13T16:24:49.931Z,1.72
2023-03-13T16:29:57.968Z,0.00
2023-03-13T16:35:04.280Z,8.93
2023-03-13T16:40:11.141Z,3.21
2023-03-13T16:45:17.615Z,0.00
2023-03-13T16:50:24.455Z,6.02
2023-03-13T16:55:31.699Z,3.21
2023-03-13T17:00:38.771Z,7.35
2023-03-13T17:05:45.082Z,3.39
2023-03-13T17:10:52.300Z,15.71
2023-03-13T17:15:59.075Z,0.00
2023-03-13T17:21:05.957Z,0.80
2023-03-13T17:26:12.487Z,11.09
2023-03-13T17:31:19.072Z,0.73
2023-03-13T17:36:26.467Z,5.27
2023-03-13T17:41:33.202Z,0.73
2023-03-13T17:46:39.666Z,2.86
2023-03-13T17:51:47.377Z,11.26
2023-03-13T17:56:53.824Z,15.71
2023-03-13T18:02:01.599Z,17.07
2023-03-13T18:07:07.929Z,0.36
2023-03-13T18:12:14.906Z,13.93
2023-03-13T18:17:21.347Z,17.50
2023-03-13T18:22:28.445Z,12.14
2023-03-13T18:27:34.888Z,20.71
2023-03-13T18:32:41.629Z,4.64
2023-03-13T18:37:48.144Z,18.21
2023-03-13T18:42:54.933Z,11.43
2023-03-13T18:48:02.435Z,6.78
2023-03-13T18:53:09.016Z,20.71
2023-03-13T18:58:16.308Z,18.57
2023-03-13T19:03:23.935Z,1.43
2023-03-13T19:08:30.348Z,20.71
2023-03-13T19:13:37.421Z,16.78
2023-03-13T19:18:43.722Z,14.28
2023-03-13T19:23:50.287Z,14.64
2023-03-13T19:28:56.834Z,21.07
2023-03-13T19:34:03.392Z,18.57
2023-03-13T19:39:09.682Z,18.57
2023-03-13T19:44:16.689Z,2.50
2023-03-13T19:49:23.049Z,21.07
2023-03-13T19:54:29.954Z,14.28
2023-03-13T19:59:36.217Z,20.71
2023-03-13T20:04:44.875Z,18.21
2023-03-13T20:09:51.331Z,21.43
2023-03-13T20:14:58.657Z,12.14
2023-03-13T20:20:04.724Z,18.21
2023-03-13T20:25:11.471Z,21.07
2023-03-13T20:30:18.507Z,18.93
2023-03-13T20:35:26.454Z,13.57
2023-03-13T20:40:34.025Z,20.00
2023-03-13T20:45:41.025Z,21.07
2023-03-13T20:50:47.679Z,21.07
2023-03-13T20:55:56.124Z,20.35
2023-03-13T21:01:03.064Z,20.00
2023-03-13T21:06:11.836Z,18.93
2023-03-13T21:11:18.221Z,11.43
2023-03-13T21:16:25.782Z,18.57
2023-03-13T21:21:31.900Z,21.07
2023-03-13T21:26:38.610Z,21.43
2023-03-13T21:31:45.102Z,20.35
2023-03-13T21:36:52.065Z,21.07
2023-03-13T21:41:58.511Z,17.50
2023-03-13T21:47:05.715Z,16.43
2023-03-13T21:52:11.966Z,20.35
2023-03-13T21:57:19.068Z,14.28
2023-03-13T22:02:25.594Z,16.78
2023-03-13T22:07:32.681Z,16.43
2023-03-13T22:12:40.243Z,21.78
2023-03-13T22:17:46.946Z,20.71
2023-03-13T22:22:53.494Z,22.14
2023-03-13T22:28:00.443Z,20.35
2023-03-13T22:33:07.023Z,22.85
2023-03-13T22:38:14.574Z,16.07
2023-03-13T22:43:20.931Z,22.14
2023-03-13T22:48:28.623Z,20.35
2023-03-13T22:53:35.163Z,20.35
2023-03-13T22:58:41.778Z,21.43
2023-03-13T23:03:48.318Z,29.28
2023-03-13T23:08:55.388Z,21.07
2023-03-13T23:14:02.805Z,17.56
2023-03-13T23:19:09.168Z,18.93
2023-03-13T23:24:16.535Z,24.64
2023-03-13T23:29:23.168Z,22.50
2023-03-13T23:34:29.742Z,33.21
2023-03-13T23:39:36.478Z,21.07
2023-03-13T23:44:42.581Z,24.28
2023-03-13T23:49:49.237Z,21.43
2023-03-13T23:54:55.658Z,12.14
